createdAt,value
2023-03-20T00:00:31.185Z,10.00
2023-03-20T00:01:51.583Z,10.00
2023-03-20T00:03:12.424Z,10.00
2023-03-20T00:04:33.075Z,10.00
2023-03-20T00:05:53.830Z,10.00
2023-03-20T00:07:14.438Z,10.00
2023-03-20T00:08:35.279Z,10.00
2023-03-20T00:09:55.803Z,10.00
2023-03-20T00:11:28.568Z,9.90
2023-03-20T00:12:49.469Z,9.90
2023-03-20T00:14:11.181Z,9.90
2023-03-20T00:15:32.982Z,9.80
2023-03-20T00:16:53.602Z,9.80
2023-03-20T00:18:15.957Z,9.80
2023-03-20T00:19:36.555Z,9.80
2023-03-20T00:20:57.043Z,9.70
2023-03-20T00:22:17.770Z,9.80
2023-03-20T00:23:38.392Z,9.70
2023-03-20T00:24:58.984Z,9.70
2023-03-20T00:26:19.745Z,9.70
2023-03-20T00:27:41.662Z,9.70
2023-03-20T00:29:03.032Z,9.70
2023-03-20T00:30:27.413Z,9.70
2023-03-20T00:31:48.242Z,9.70
2023-03-20T00:33:10.481Z,9.70
2023-03-20T00:34:31.054Z,9.70
2023-03-20T00:35:51.926Z,9.60
2023-03-20T00:37:12.691Z,9.70
2023-03-20T00:38:33.407Z,9.70
2023-03-20T00:39:53.991Z,9.70
2023-03-20T00:41:23.892Z,9.70
2023-03-20T00:42:48.695Z,9.70
2023-03-20T00:44:18.994Z,9.70
2023-03-20T00:45:39.467Z,9.70
2023-03-20T00:47:01.655Z,9.70
2023-03-20T00:48:22.361Z,9.80
2023-03-20T00:49:43.171Z,9.80
2023-03-20T00:51:03.459Z,9.80
2023-03-20T00:52:27.420Z,9.80
2023-03-20T00:53:47.925Z,9.80
2023-03-20T00:55:09.232Z,9.70
2023-03-20T00:56:33.402Z,9.70
2023-03-20T00:57:56.481Z,9.80
2023-03-20T00:59:18.880Z,9.70
2023-03-20T01:00:40.770Z,9.70
2023-03-20T01:02:02.007Z,9.70
2023-03-20T01:03:25.508Z,9.70
2023-03-20T01:04:46.043Z,9.70
2023-03-20T01:06:06.935Z,9.70
2023-03-20T01:07:27.883Z,9.70
2023-03-20T01:08:48.271Z,9.70
2023-03-20T01:10:10.692Z,9.70
2023-03-20T01:11:31.251Z,9.70
2023-03-20T01:12:51.976Z,9.70
2023-03-20T01:14:15.417Z,9.70
2023-03-20T01:15:36.450Z,9.60
2023-03-20T01:16:57.168Z,9.60
2023-03-20T01:18:18.687Z,9.60
2023-03-20T01:19:39.044Z,9.70
2023-03-20T01:20:59.489Z,9.70
2023-03-20T01:22:20.322Z,9.70
2023-03-20T01:23:40.853Z,9.70
2023-03-20T01:25:01.664Z,9.80
2023-03-20T01:26:34.300Z,9.80
2023-03-20T01:27:55.464Z,9.70
2023-03-20T01:29:20.488Z,9.70
2023-03-20T01:30:41.070Z,9.70
2023-03-20T01:32:01.589Z,9.70
2023-03-20T01:33:23.895Z,9.70
2023-03-20T01:34:44.951Z,9.70
2023-03-20T01:36:06.317Z,9.80
2023-03-20T01:37:27.931Z,9.80
2023-03-20T01:38:50.197Z,9.80
2023-03-20T01:40:19.886Z,9.70
2023-03-20T01:41:40.183Z,9.70
2023-03-20T01:43:01.330Z,9.70
2023-03-20T01:44:25.426Z,9.70
2023-03-20T01:45:57.482Z,9.70
2023-03-20T01:47:19.442Z,9.70
2023-03-20T01:48:56.523Z,9.60
2023-03-20T01:50:26.351Z,9.60
2023-03-20T01:51:47.345Z,9.50
2023-03-20T01:53:12.511Z,9.60
2023-03-20T01:54:34.580Z,9.50
2023-03-20T01:55:57.123Z,9.60
2023-03-20T01:57:19.875Z,9.60
2023-03-20T01:58:45.045Z,9.50
2023-03-20T02:00:10.685Z,9.60
2023-03-20T02:01:31.377Z,9.60
2023-03-20T02:02:52.223Z,9.60
2023-03-20T02:04:14.672Z,9.60
2023-03-20T02:05:36.148Z,9.60
2023-03-20T02:06:57.046Z,9.60
2023-03-20T02:08:24.344Z,9.50
2023-03-20T02:09:44.606Z,9.50
2023-03-20T02:11:06.209Z,9.50
2023-03-20T02:12:26.942Z,9.50
2023-03-20T02:13:47.980Z,9.50
2023-03-20T02:15:11.916Z,9.50
2023-03-20T02:16:32.623Z,9.50
2023-03-20T02:17:53.212Z,9.50
2023-03-20T02:19:19.551Z,9.50
2023-03-20T02:20:50.674Z,9.50
2023-03-20T02:22:41.039Z,9.50
2023-03-20T02:24:24.697Z,9.60
2023-03-20T02:26:08.727Z,9.60
2023-03-20T02:27:34.634Z,9.60
2023-03-20T02:29:30.824Z,9.50
2023-03-20T02:31:06.811Z,9.50
2023-03-20T02:33:01.400Z,9.50
2023-03-20T02:34:47.235Z,9.50
2023-03-20T02:36:44.559Z,9.50
2023-03-20T02:38:35.711Z,9.40
2023-03-20T02:40:09.585Z,9.30
2023-03-20T02:41:32.571Z,9.30
2023-03-20T02:42:58.501Z,9.30
2023-03-20T02:44:23.106Z,9.30
2023-03-20T02:45:49.654Z,9.30
2023-03-20T02:47:14.527Z,9.30
2023-03-20T02:48:45.345Z,9.30
2023-03-20T02:50:13.846Z,9.30
2023-03-20T02:51:38.048Z,9.30
2023-03-20T02:53:03.087Z,9.30
2023-03-20T02:54:30.121Z,9.30
2023-03-20T02:55:55.242Z,9.30
2023-03-20T02:57:18.169Z,9.30
2023-03-20T02:58:42.062Z,9.30
2023-03-20T03:00:05.939Z,9.30
2023-03-20T03:01:30.729Z,9.20
2023-03-20T03:02:57.018Z,9.30
2023-03-20T03:04:19.966Z,9.30
2023-03-20T03:05:44.196Z,9.20
2023-03-20T03:07:06.345Z,9.20
2023-03-20T03:08:30.490Z,9.20
2023-03-20T03:09:57.038Z,9.20
2023-03-20T03:11:17.767Z,9.20
2023-03-20T03:12:40.702Z,9.10
2023-03-20T03:14:02.218Z,9.10
2023-03-20T03:15:26.021Z,9.10
2023-03-20T03:16:46.766Z,9.20
2023-03-20T03:18:11.811Z,9.20
2023-03-20T03:19:32.692Z,9.20
2023-03-20T03:20:57.365Z,9.20
2023-03-20T03:22:18.498Z,9.20
2023-03-20T03:23:42.034Z,9.10
2023-03-20T03:25:04.716Z,9.20
2023-03-20T03:26:27.551Z,9.20
2023-03-20T03:27:50.793Z,9.20
2023-03-20T03:29:13.875Z,9.20
2023-03-20T03:30:37.176Z,9.20
2023-03-20T03:31:57.627Z,9.20
2023-03-20T03:33:21.968Z,9.20
2023-03-20T03:34:42.407Z,9.20
2023-03-20T03:36:10.931Z,9.20
2023-03-20T03:37:39.897Z,9.10
2023-03-20T03:39:03.354Z,9.20
2023-03-20T03:40:31.899Z,9.20
2023-03-20T03:41:55.752Z,9.20
2023-03-20T03:43:18.939Z,9.20
2023-03-20T03:44:43.930Z,9.20
2023-03-20T03:46:07.480Z,9.20
2023-03-20T03:47:32.057Z,9.10
2023-03-20T03:48:57.011Z,9.10
2023-03-20T03:50:20.275Z,9.10
2023-03-20T03:51:43.106Z,9.10
2023-03-20T03:53:08.221Z,9.10
2023-03-20T03:54:32.697Z,9.10
2023-03-20T03:55:57.313Z,9.10
2023-03-20T03:57:21.848Z,9.10
2023-03-20T03:58:43.684Z,9.10
2023-03-20T04:00:06.031Z,9.10
2023-03-20T04:01:27.007Z,9.10
2023-03-20T04:02:50.280Z,9.20
2023-03-20T04:04:12.737Z,9.20
2023-03-20T04:05:36.554Z,9.10
2023-03-20T04:06:57.474Z,9.10
2023-03-20T04:08:20.235Z,9.10
2023-03-20T04:09:40.974Z,9.10
2023-03-20T04:11:03.002Z,9.10
2023-03-20T04:12:34.244Z,9.10
2023-03-20T04:13:57.654Z,9.10
2023-03-20T04:15:18.149Z,9.00
2023-03-20T04:16:39.051Z,9.00
2023-03-20T04:17:59.876Z,9.10
2023-03-20T04:19:20.454Z,9.10
2023-03-20T04:20:41.156Z,9.10
2023-03-20T04:22:01.640Z,9.10
2023-03-20T04:23:22.055Z,9.10
2023-03-20T04:24:42.710Z,9.10
2023-03-20T04:26:05.784Z,9.10
2023-03-20T04:27:26.469Z,9.10
2023-03-20T04:28:46.966Z,9.10
2023-03-20T04:30:08.685Z,9.10
2023-03-20T04:31:29.327Z,9.10
2023-03-20T04:32:49.997Z,9.10
2023-03-20T04:34:10.443Z,9.20
2023-03-20T04:35:31.143Z,9.20
2023-03-20T04:36:51.854Z,9.10
2023-03-20T04:38:11.999Z,9.10
2023-03-20T04:39:32.772Z,9.20
2023-03-20T04:40:55.482Z,9.20
2023-03-20T04:42:17.537Z,9.20
2023-03-20T04:43:38.001Z,9.10
2023-03-20T04:44:58.409Z,9.10
2023-03-20T04:46:19.099Z,9.10
2023-03-20T04:47:39.844Z,9.10
2023-03-20T04:49:00.540Z,9.10
2023-03-20T04:50:21.531Z,9.00
2023-03-20T04:51:42.178Z,9.10
2023-03-20T04:53:02.689Z,9.10
2023-03-20T04:54:23.374Z,9.00
2023-03-20T04:55:44.574Z,9.00
2023-03-20T04:57:05.185Z,9.00
2023-03-20T04:58:27.202Z,9.00
2023-03-20T04:59:47.747Z,9.00
2023-03-20T05:01:08.526Z,9.10
2023-03-20T05:02:29.198Z,9.10
2023-03-20T05:03:49.919Z,9.10
2023-03-20T05:05:10.831Z,9.10
2023-03-20T05:06:31.343Z,9.10
2023-03-20T05:07:52.010Z,9.00
2023-03-20T05:09:12.527Z,9.10
2023-03-20T05:10:33.361Z,9.00
2023-03-20T05:11:53.866Z,9.10
2023-03-20T05:13:14.560Z,9.00
2023-03-20T05:14:36.469Z,9.00
2023-03-20T05:15:56.421Z,9.00
2023-03-20T05:17:16.785Z,9.10
2023-03-20T05:18:37.552Z,9.10
2023-03-20T05:19:58.197Z,9.10
2023-03-20T05:21:19.047Z,9.10
2023-03-20T05:22:39.626Z,9.10
2023-03-20T05:24:00.300Z,9.10
2023-03-20T05:25:20.871Z,9.10
2023-03-20T05:26:41.410Z,9.10
2023-03-20T05:28:02.103Z,9.10
2023-03-20T05:29:22.994Z,9.00
2023-03-20T05:30:44.951Z,9.10
2023-03-20T05:32:06.286Z,9.10
2023-03-20T05:33:26.638Z,9.10
2023-03-20T05:34:47.244Z,9.10
2023-03-20T05:36:09.062Z,9.10
2023-03-20T05:37:29.636Z,9.10
2023-03-20T05:38:50.103Z,9.10
2023-03-20T05:40:12.696Z,9.10
2023-03-20T05:41:33.592Z,9.10
2023-03-20T05:42:54.497Z,9.10
2023-03-20T05:44:15.188Z,9.10
2023-03-20T05:45:36.018Z,9.10
2023-03-20T05:46:58.813Z,9.10
2023-03-20T05:48:19.203Z,9.20
2023-03-20T05:49:39.551Z,9.20
2023-03-20T05:51:00.140Z,9.20
2023-03-20T05:52:20.953Z,9.20
2023-03-20T05:53:41.567Z,9.30
2023-03-20T05:55:02.205Z,9.20
2023-03-20T05:56:22.890Z,9.30
2023-03-20T05:57:43.621Z,9.30
2023-03-20T05:59:04.304Z,9.30
2023-03-20T06:00:24.713Z,9.40
2023-03-20T06:01:45.723Z,9.40
2023-03-20T06:03:07.537Z,9.40
2023-03-20T06:04:28.075Z,9.30
2023-03-20T06:05:48.454Z,9.30
2023-03-20T06:07:08.947Z,9.30
2023-03-20T06:08:29.577Z,9.40
2023-03-20T06:09:49.849Z,9.30
2023-03-20T06:11:10.654Z,9.30
2023-03-20T06:12:31.009Z,9.30
2023-03-20T06:13:51.714Z,9.30
2023-03-20T06:15:12.215Z,9.30
2023-03-20T06:16:32.655Z,9.30
2023-03-20T06:17:53.250Z,9.30
2023-03-20T06:19:15.370Z,9.20
2023-03-20T06:20:35.758Z,9.20
2023-03-20T06:21:56.373Z,9.20
2023-03-20T06:23:17.017Z,9.30
2023-03-20T06:24:37.624Z,9.30
2023-03-20T06:25:58.119Z,9.30
2023-03-20T06:27:18.731Z,9.30
2023-03-20T06:28:39.442Z,9.30
2023-03-20T06:30:00.262Z,9.30
2023-03-20T06:31:21.026Z,9.30
2023-03-20T06:32:41.522Z,9.30
2023-03-20T06:34:02.113Z,9.30
2023-03-20T06:35:24.035Z,9.30
2023-03-20T06:36:45.440Z,9.30
2023-03-20T06:38:05.904Z,9.40
2023-03-20T06:39:26.881Z,9.40
2023-03-20T06:40:47.422Z,9.30
2023-03-20T06:42:08.067Z,9.30
2023-03-20T06:43:28.615Z,9.30
2023-03-20T06:44:49.159Z,9.40
2023-03-20T06:46:09.885Z,9.30
2023-03-20T06:47:30.609Z,9.30
2023-03-20T06:48:51.244Z,9.30
2023-03-20T06:50:12.037Z,9.40
2023-03-20T06:51:33.833Z,9.40
2023-03-20T06:52:54.324Z,9.40
2023-03-20T06:54:14.911Z,9.40
2023-03-20T06:55:39.260Z,9.40
2023-03-20T06:56:59.760Z,9.40
2023-03-20T06:58:20.461Z,9.50
2023-03-20T06:59:40.867Z,9.50
2023-03-20T07:01:01.372Z,9.50
2023-03-20T07:02:22.121Z,9.40
2023-03-20T07:03:43.228Z,9.40
2023-03-20T07:05:03.877Z,9.50
2023-03-20T07:06:24.839Z,9.40
2023-03-20T07:07:46.710Z,9.40
2023-03-20T07:09:07.487Z,9.40
2023-03-20T07:10:28.505Z,9.40
2023-03-20T07:11:48.763Z,9.50
2023-03-20T07:13:09.532Z,9.50
2023-03-20T07:14:29.958Z,9.50
2023-03-20T07:16:03.285Z,9.50
2023-03-20T07:17:27.701Z,9.50
2023-03-20T07:18:48.152Z,9.50
2023-03-20T07:20:10.049Z,9.50
2023-03-20T07:21:30.614Z,9.60
2023-03-20T07:22:52.236Z,9.60
2023-03-20T07:24:12.836Z,9.60
2023-03-20T07:25:42.118Z,9.60
2023-03-20T07:27:03.110Z,9.70
2023-03-20T07:28:23.883Z,9.60
2023-03-20T07:29:45.137Z,9.70
2023-03-20T07:31:05.988Z,9.60
2023-03-20T07:32:26.439Z,9.60
2023-03-20T07:33:47.273Z,9.60
2023-03-20T07:35:08.382Z,9.60
2023-03-20T07:36:28.798Z,9.60
2023-03-20T07:37:49.353Z,9.60
2023-03-20T07:39:11.445Z,9.60
2023-03-20T07:40:31.739Z,9.60
2023-03-20T07:41:52.643Z,9.60
2023-03-20T07:43:13.202Z,9.60
2023-03-20T07:44:33.932Z,9.60
2023-03-20T07:45:54.638Z,9.60
2023-03-20T07:47:15.191Z,9.60
2023-03-20T07:48:36.066Z,9.60
2023-03-20T07:49:56.502Z,9.60
2023-03-20T07:51:17.344Z,9.60
2023-03-20T07:52:38.074Z,9.50
2023-03-20T07:53:59.121Z,9.50
2023-03-20T07:55:21.270Z,9.50
2023-03-20T07:56:42.074Z,9.50
2023-03-20T07:58:02.779Z,9.50
2023-03-20T07:59:23.530Z,9.50
2023-03-20T08:00:43.867Z,9.50
2023-03-20T08:02:04.249Z,9.50
2023-03-20T08:03:24.871Z,9.50
2023-03-20T08:04:45.887Z,9.50
2023-03-20T08:06:07.974Z,9.50
2023-03-20T08:07:28.841Z,9.50
2023-03-20T08:08:49.576Z,9.50
2023-03-20T08:10:10.889Z,9.50
2023-03-20T08:11:34.434Z,9.40
2023-03-20T08:12:55.197Z,9.40
2023-03-20T08:14:16.011Z,9.40
2023-03-20T08:15:36.783Z,9.40
2023-03-20T08:17:13.294Z,9.40
2023-03-20T08:18:35.268Z,9.30
2023-03-20T08:19:55.933Z,9.30
2023-03-20T08:21:16.241Z,9.30
2023-03-20T08:22:36.985Z,9.30
2023-03-20T08:23:57.868Z,9.30
2023-03-20T08:25:18.881Z,9.30
2023-03-20T08:26:41.361Z,9.20
2023-03-20T08:28:02.275Z,9.20
2023-03-20T08:29:23.538Z,9.20
2023-03-20T08:30:44.203Z,9.30
2023-03-20T08:32:05.816Z,9.30
2023-03-20T08:33:26.340Z,9.20
2023-03-20T08:34:49.871Z,9.20
2023-03-20T08:36:10.402Z,9.20
2023-03-20T08:37:31.061Z,9.20
2023-03-20T08:38:51.630Z,9.20
2023-03-20T08:40:12.968Z,9.20
2023-03-20T08:41:33.520Z,9.20
2023-03-20T08:42:55.592Z,9.20
2023-03-20T08:44:16.067Z,9.20
2023-03-20T08:45:36.822Z,9.20
2023-03-20T08:46:58.034Z,9.20
2023-03-20T08:48:18.345Z,9.20
2023-03-20T08:49:39.005Z,9.20
2023-03-20T08:50:59.688Z,9.20
2023-03-20T08:52:20.169Z,9.20
2023-03-20T08:53:40.495Z,9.20
2023-03-20T08:55:01.193Z,9.30
2023-03-20T08:56:21.748Z,9.30
2023-03-20T08:57:42.432Z,9.30
2023-03-20T08:59:04.503Z,9.30
2023-03-20T09:00:25.217Z,9.30
2023-03-20T09:01:50.117Z,9.30
2023-03-20T09:03:12.726Z,9.30
2023-03-20T09:04:33.168Z,9.30
2023-03-20T09:05:53.836Z,9.30
2023-03-20T09:07:14.299Z,9.30
2023-03-20T09:08:35.189Z,9.30
2023-03-20T09:09:55.828Z,9.40
2023-03-20T09:11:16.417Z,9.40
2023-03-20T09:12:37.320Z,9.30
2023-03-20T09:13:57.916Z,9.30
2023-03-20T09:15:19.853Z,9.30
2023-03-20T09:16:40.347Z,9.40
2023-03-20T09:18:02.884Z,9.30
2023-03-20T09:19:24.624Z,9.30
2023-03-20T09:20:46.969Z,9.30
2023-03-20T09:22:07.331Z,9.40
2023-03-20T09:23:27.850Z,9.40
2023-03-20T09:24:48.467Z,9.30
2023-03-20T09:26:08.766Z,9.30
2023-03-20T09:27:29.329Z,9.30
2023-03-20T09:28:49.734Z,9.30
2023-03-20T09:30:11.635Z,9.30
2023-03-20T09:31:33.736Z,9.30
2023-03-20T09:32:54.296Z,9.40
2023-03-20T09:34:15.360Z,9.40
2023-03-20T09:35:35.604Z,9.40
2023-03-20T09:36:56.119Z,9.40
2023-03-20T09:38:16.620Z,9.40
2023-03-20T09:39:37.371Z,9.50
2023-03-20T09:40:59.232Z,9.50
2023-03-20T09:42:23.724Z,9.60
2023-03-20T09:44:02.476Z,9.60
2023-03-20T09:45:31.918Z,9.60
2023-03-20T09:47:16.484Z,9.60
2023-03-20T09:48:44.967Z,9.70
2023-03-20T09:50:17.491Z,9.60
2023-03-20T09:51:43.077Z,9.70
2023-03-20T09:53:06.219Z,9.70
2023-03-20T09:54:28.944Z,9.80
2023-03-20T09:55:50.261Z,9.80
2023-03-20T09:57:18.112Z,9.80
2023-03-20T09:58:39.822Z,9.80
2023-03-20T10:00:02.034Z,9.80
2023-03-20T10:01:24.797Z,9.80
2023-03-20T10:02:50.519Z,9.80
2023-03-20T10:04:12.017Z,9.80
2023-03-20T10:05:37.157Z,9.80
2023-03-20T10:06:57.754Z,9.70
2023-03-20T10:08:21.498Z,9.80
2023-03-20T10:09:42.881Z,9.80
2023-03-20T10:11:11.046Z,9.80
2023-03-20T10:12:47.407Z,9.80
2023-03-20T10:14:22.098Z,9.90
2023-03-20T10:15:49.100Z,9.90
2023-03-20T10:17:25.272Z,9.90
2023-03-20T10:18:54.369Z,10.00
2023-03-20T10:20:25.220Z,10.00
2023-03-20T10:21:47.093Z,10.00
2023-03-20T10:23:13.812Z,9.90
2023-03-20T10:24:36.257Z,10.00
2023-03-20T10:26:00.177Z,10.00
2023-03-20T10:27:29.269Z,10.00
2023-03-20T10:28:53.317Z,10.10
2023-03-20T10:30:25.374Z,10.10
2023-03-20T10:31:52.198Z,10.00
2023-03-20T10:33:30.963Z,10.00
2023-03-20T10:35:00.196Z,10.00
2023-03-20T10:36:33.526Z,10.00
2023-03-20T10:38:05.271Z,10.10
2023-03-20T10:39:30.159Z,10.10
2023-03-20T10:40:51.227Z,10.10
2023-03-20T10:42:16.567Z,10.10
2023-03-20T10:43:41.652Z,10.10
2023-03-20T10:45:07.500Z,10.00
2023-03-20T10:46:31.534Z,10.10
2023-03-20T10:47:52.832Z,10.10
2023-03-20T10:49:16.560Z,10.00
2023-03-20T10:50:41.921Z,10.00
2023-03-20T10:52:04.855Z,10.00
2023-03-20T10:53:32.678Z,10.00
2023-03-20T10:54:56.657Z,10.00
2023-03-20T10:56:23.370Z,10.10
2023-03-20T10:57:48.050Z,10.10
2023-03-20T10:59:18.213Z,10.10
2023-03-20T11:00:39.775Z,10.00
2023-03-20T11:02:00.340Z,10.00
2023-03-20T11:03:22.843Z,10.10
2023-03-20T11:04:43.818Z,10.10
2023-03-20T11:06:13.228Z,10.10
2023-03-20T11:07:35.650Z,10.10
2023-03-20T11:08:56.280Z,10.20
2023-03-20T11:10:17.001Z,10.20
2023-03-20T11:11:39.613Z,10.20
2023-03-20T11:13:13.852Z,10.20
2023-03-20T11:14:35.893Z,10.20
2023-03-20T11:15:56.538Z,10.20
2023-03-20T11:17:17.159Z,10.30
2023-03-20T11:18:37.661Z,10.20
2023-03-20T11:20:04.077Z,10.20
2023-03-20T11:21:28.247Z,10.30
2023-03-20T11:22:59.230Z,10.30
2023-03-20T11:24:27.224Z,10.20
2023-03-20T11:25:50.793Z,10.30
2023-03-20T11:27:13.294Z,10.30
2023-03-20T11:28:34.954Z,10.30
2023-03-20T11:29:56.144Z,10.30
2023-03-20T11:31:17.677Z,10.30
2023-03-20T11:32:41.070Z,10.40
2023-03-20T11:34:12.166Z,10.40
2023-03-20T11:35:32.945Z,10.30
2023-03-20T11:37:09.793Z,10.30
2023-03-20T11:38:31.543Z,10.30
2023-03-20T11:39:59.552Z,10.30
2023-03-20T11:41:24.077Z,10.40
2023-03-20T11:42:53.338Z,10.40
2023-03-20T11:44:27.540Z,10.40
2023-03-20T11:45:49.712Z,10.40
2023-03-20T11:47:14.166Z,10.40
2023-03-20T11:48:37.880Z,10.40
2023-03-20T11:49:59.736Z,10.40
2023-03-20T11:51:22.081Z,10.50
2023-03-20T11:52:44.147Z,10.40
2023-03-20T11:54:06.813Z,10.40
2023-03-20T11:55:29.349Z,10.40
2023-03-20T11:56:55.034Z,10.40
2023-03-20T11:58:16.901Z,10.40
2023-03-20T11:59:37.786Z,10.40
2023-03-20T12:00:58.504Z,10.50
2023-03-20T12:02:21.029Z,10.50
2023-03-20T12:03:44.789Z,10.50
2023-03-20T12:05:28.576Z,10.50
2023-03-20T12:06:53.875Z,10.50
2023-03-20T12:08:19.406Z,10.50
2023-03-20T12:09:42.570Z,10.40
2023-03-20T12:11:08.550Z,10.50
2023-03-20T12:12:36.074Z,10.50
2023-03-20T12:14:00.256Z,10.40
2023-03-20T12:15:24.245Z,10.40
2023-03-20T12:16:45.124Z,10.50
2023-03-20T12:18:09.749Z,10.40
2023-03-20T12:19:30.782Z,10.40
2023-03-20T12:20:59.710Z,10.40
2023-03-20T12:22:24.159Z,10.40
2023-03-20T12:23:47.743Z,10.40
2023-03-20T12:25:16.489Z,10.30
2023-03-20T12:26:46.307Z,10.30
2023-03-20T12:28:13.079Z,10.30
2023-03-20T12:29:40.571Z,10.40
2023-03-20T12:31:06.438Z,10.40
2023-03-20T12:32:31.611Z,10.40
2023-03-20T12:33:57.147Z,10.40
2023-03-20T12:35:20.543Z,10.40
2023-03-20T12:36:43.106Z,10.40
2023-03-20T12:38:03.791Z,10.50
2023-03-20T12:39:27.274Z,10.40
2023-03-20T12:40:51.225Z,10.40
2023-03-20T12:42:18.904Z,10.30
2023-03-20T12:43:59.636Z,10.30
2023-03-20T12:45:22.076Z,10.30
2023-03-20T12:46:45.313Z,10.30
2023-03-20T12:48:14.881Z,10.30
2023-03-20T12:49:46.223Z,10.30
2023-03-20T12:51:13.618Z,10.30
2023-03-20T12:52:42.705Z,10.30
2023-03-20T12:54:14.981Z,10.30
2023-03-20T12:55:42.772Z,10.30
2023-03-20T12:57:08.541Z,10.30
2023-03-20T12:58:36.218Z,10.30
2023-03-20T13:00:19.803Z,10.30
2023-03-20T13:01:46.527Z,10.30
2023-03-20T13:03:17.028Z,10.20
2023-03-20T13:04:50.064Z,10.20
2023-03-20T13:06:14.257Z,10.20
2023-03-20T13:07:43.216Z,10.30
2023-03-20T13:09:19.925Z,10.30
2023-03-20T13:10:54.732Z,10.30
2023-03-20T13:12:21.102Z,10.30
2023-03-20T13:13:46.088Z,10.30
2023-03-20T13:15:21.841Z,10.30
2023-03-20T13:16:48.905Z,10.40
2023-03-20T13:18:15.480Z,10.30
2023-03-20T13:19:39.436Z,10.40
2023-03-20T13:21:02.553Z,10.40
2023-03-20T13:22:29.281Z,10.40
2023-03-20T13:23:54.486Z,10.30
2023-03-20T13:25:28.089Z,10.30
2023-03-20T13:26:54.485Z,10.30
2023-03-20T13:28:19.360Z,10.30
2023-03-20T13:29:46.183Z,10.30
2023-03-20T13:31:18.197Z,10.30
2023-03-20T13:32:41.149Z,10.40
2023-03-20T13:34:07.071Z,10.30
2023-03-20T13:35:37.181Z,10.30
2023-03-20T13:37:22.476Z,10.30
2023-03-20T13:38:46.389Z,10.30
2023-03-20T13:40:14.803Z,10.30
2023-03-20T13:41:35.742Z,10.30
2023-03-20T13:43:04.374Z,10.30
2023-03-20T13:44:28.104Z,10.30
2023-03-20T13:45:50.830Z,10.40
2023-03-20T13:47:13.500Z,10.40
2023-03-20T13:48:36.245Z,10.40
2023-03-20T13:49:59.976Z,10.40
2023-03-20T13:51:27.235Z,10.40
2023-03-20T13:52:52.904Z,10.40
2023-03-20T13:54:21.101Z,10.40
2023-03-20T13:55:47.759Z,10.40
2023-03-20T13:57:17.762Z,10.40
2023-03-20T13:58:56.249Z,10.40
2023-03-20T14:00:25.136Z,10.40
2023-03-20T14:01:50.578Z,10.40
2023-03-20T14:03:18.712Z,10.40
2023-03-20T14:04:39.554Z,10.50
2023-03-20T14:05:59.983Z,10.50
2023-03-20T14:07:32.243Z,10.50
2023-03-20T14:08:54.162Z,10.50
2023-03-20T14:10:33.726Z,10.50
2023-03-20T14:11:54.707Z,10.50
2023-03-20T14:13:17.823Z,10.50
2023-03-20T14:14:43.845Z,10.50
2023-03-20T14:16:08.358Z,10.50
2023-03-20T14:17:30.190Z,10.50
2023-03-20T14:18:50.776Z,10.50
2023-03-20T14:20:16.097Z,10.60
2023-03-20T14:21:36.958Z,10.50
2023-03-20T14:22:57.817Z,10.50
2023-03-20T14:24:19.058Z,10.50
2023-03-20T14:25:41.422Z,10.60
2023-03-20T14:27:02.123Z,10.50
2023-03-20T14:28:26.384Z,10.60
2023-03-20T14:29:48.281Z,10.60
2023-03-20T14:31:13.984Z,10.60
2023-03-20T14:32:35.481Z,10.60
2023-03-20T14:34:09.144Z,10.60
2023-03-20T14:35:29.564Z,10.60
2023-03-20T14:36:57.466Z,10.60
2023-03-20T14:38:24.209Z,10.60
2023-03-20T14:39:49.674Z,10.60
2023-03-20T14:41:14.871Z,10.60
2023-03-20T14:42:47.681Z,10.60
2023-03-20T14:44:22.137Z,10.60
2023-03-20T14:45:45.113Z,10.60
2023-03-20T14:47:15.981Z,10.60
2023-03-20T14:48:45.113Z,10.60
2023-03-20T14:50:14.892Z,10.70
2023-03-20T14:51:42.190Z,10.70
2023-03-20T14:53:12.765Z,10.70
2023-03-20T14:54:34.197Z,10.70
2023-03-20T14:56:07.437Z,10.70
2023-03-20T14:57:48.729Z,10.70
2023-03-20T14:59:17.195Z,10.80
2023-03-20T15:00:46.921Z,10.70
2023-03-20T15:02:27.754Z,10.80
2023-03-20T15:03:52.595Z,10.80
2023-03-20T15:05:24.807Z,10.80
2023-03-20T15:06:49.603Z,10.80
2023-03-20T15:08:19.375Z,10.80
2023-03-20T15:09:45.990Z,10.90
2023-03-20T15:11:16.143Z,10.80
2023-03-20T15:12:41.170Z,10.90
2023-03-20T15:14:04.882Z,10.80
2023-03-20T15:15:28.549Z,10.90
2023-03-20T15:17:03.352Z,10.90
2023-03-20T15:18:28.849Z,10.90
2023-03-20T15:20:00.944Z,10.90
2023-03-20T15:21:28.809Z,10.90
2023-03-20T15:22:53.268Z,10.90
2023-03-20T15:24:21.325Z,10.90
2023-03-20T15:25:44.293Z,10.90
2023-03-20T15:27:08.120Z,10.90
2023-03-20T15:28:31.225Z,10.90
2023-03-20T15:29:55.693Z,10.90
2023-03-20T15:31:23.586Z,10.90
2023-03-20T15:32:49.309Z,10.90
2023-03-20T15:34:22.062Z,10.90
2023-03-20T15:35:42.966Z,10.90
2023-03-20T15:37:05.953Z,10.90
2023-03-20T15:38:37.791Z,10.90
2023-03-20T15:39:59.739Z,10.90
2023-03-20T15:41:32.453Z,10.90
2023-03-20T15:42:58.357Z,10.90
2023-03-20T15:44:24.765Z,11.00
2023-03-20T15:46:18.463Z,10.90
2023-03-20T15:47:46.847Z,10.90
2023-03-20T15:49:07.974Z,10.90
2023-03-20T15:50:38.700Z,10.90
2023-03-20T15:52:05.790Z,11.00
2023-03-20T15:53:34.895Z,11.00
2023-03-20T15:55:01.969Z,11.00
2023-03-20T15:56:27.152Z,10.90
2023-03-20T15:57:50.279Z,11.00
2023-03-20T15:59:23.904Z,11.00
2023-03-20T16:00:49.570Z,11.00
2023-03-20T16:02:18.099Z,11.00
2023-03-20T16:03:43.956Z,11.00
2023-03-20T16:05:06.580Z,11.00
2023-03-20T16:06:29.193Z,11.00
2023-03-20T16:07:49.950Z,11.00
2023-03-20T16:09:15.814Z,11.00
2023-03-20T16:10:37.606Z,11.00
2023-03-20T16:12:01.509Z,11.10
2023-03-20T16:13:32.817Z,11.10
2023-03-20T16:14:55.085Z,11.10
2023-03-20T16:16:19.169Z,11.10
2023-03-20T16:17:42.240Z,11.10
2023-03-20T16:19:05.333Z,11.10
2023-03-20T16:20:28.794Z,11.10
2023-03-20T16:21:49.398Z,11.20
2023-03-20T16:23:35.416Z,11.20
2023-03-20T16:25:01.453Z,11.20
2023-03-20T16:26:28.038Z,11.20
2023-03-20T16:27:53.500Z,11.20
2023-03-20T16:29:18.123Z,11.30
2023-03-20T16:30:39.973Z,11.20
2023-03-20T16:32:08.014Z,11.20
2023-03-20T16:33:31.089Z,11.20
2023-03-20T16:34:59.344Z,11.20
2023-03-20T16:36:25.764Z,11.20
2023-03-20T16:37:54.050Z,11.20
2023-03-20T16:39:20.556Z,11.30
2023-03-20T16:40:41.197Z,11.30
2023-03-20T16:42:20.988Z,11.20
2023-03-20T16:43:47.288Z,11.20
2023-03-20T16:45:25.198Z,11.20
2023-03-20T16:46:58.524Z,11.20
2023-03-20T16:48:31.207Z,11.20
2023-03-20T16:50:24.100Z,11.20
2023-03-20T16:51:45.094Z,11.10
2023-03-20T16:53:15.264Z,11.20
2023-03-20T16:54:30.698Z,11.20
2023-03-20T16:55:52.290Z,11.20
2023-03-20T16:57:16.298Z,11.20
2023-03-20T16:58:37.178Z,11.20
2023-03-20T17:00:02.610Z,11.20
2023-03-20T17:01:25.249Z,11.20
2023-03-20T17:02:50.333Z,11.10
2023-03-20T17:04:18.001Z,11.20
2023-03-20T17:05:47.556Z,11.30
2023-03-20T17:07:13.025Z,11.20
2023-03-20T17:08:36.608Z,11.20
2023-03-20T17:09:59.556Z,11.20
2023-03-20T17:11:23.261Z,11.20
2023-03-20T17:12:45.268Z,11.20
2023-03-20T17:14:05.711Z,11.20
2023-03-20T17:15:26.836Z,11.20
2023-03-20T17:16:47.645Z,11.20
2023-03-20T17:18:12.721Z,11.20
2023-03-20T17:19:33.358Z,11.20
2023-03-20T17:20:55.433Z,11.20
2023-03-20T17:22:18.272Z,11.20
2023-03-20T17:23:39.609Z,11.20
2023-03-20T17:25:03.037Z,11.30
2023-03-20T17:26:24.169Z,11.30
2023-03-20T17:27:45.675Z,11.20
2023-03-20T17:29:06.686Z,11.20
2023-03-20T17:30:27.608Z,11.30
2023-03-20T17:31:48.246Z,11.20
2023-03-20T17:33:12.513Z,11.30
2023-03-20T17:34:33.285Z,11.20
2023-03-20T17:35:55.704Z,11.20
2023-03-20T17:37:22.703Z,11.30
2023-03-20T17:38:43.348Z,11.30
2023-03-20T17:40:04.994Z,11.20
2023-03-20T17:41:26.903Z,11.30
2023-03-20T17:42:47.673Z,11.30
2023-03-20T17:44:09.782Z,11.30
2023-03-20T17:45:31.257Z,11.20
2023-03-20T17:46:58.244Z,11.20
2023-03-20T17:48:21.031Z,11.20
2023-03-20T17:49:41.492Z,11.20
2023-03-20T17:51:05.666Z,11.20
2023-03-20T17:52:28.644Z,11.30
2023-03-20T17:53:49.212Z,11.30
2023-03-20T17:55:12.492Z,11.30
2023-03-20T17:56:33.679Z,11.30
2023-03-20T17:57:55.029Z,11.30
2023-03-20T17:59:15.804Z,11.30
2023-03-20T18:00:36.868Z,11.30
2023-03-20T18:01:57.838Z,11.20
2023-03-20T18:03:19.236Z,11.20
2023-03-20T18:04:39.842Z,11.20
2023-03-20T18:06:00.507Z,11.20
2023-03-20T18:07:22.934Z,11.20
2023-03-20T18:08:43.840Z,11.20
2023-03-20T18:10:05.885Z,11.20
2023-03-20T18:11:27.057Z,11.20
2023-03-20T18:12:50.586Z,11.20
2023-03-20T18:14:11.340Z,11.30
2023-03-20T18:15:32.210Z,11.20
2023-03-20T18:16:52.671Z,11.20
2023-03-20T18:18:13.676Z,11.20
2023-03-20T18:19:34.902Z,11.20
2023-03-20T18:20:55.502Z,11.20
2023-03-20T18:22:16.323Z,11.20